sensor_id;sensor_type;location;lat;lon;timestamp;temperature;humidity
10312;DHT22;5201;48.776;9.128;2022-12-22T00:00:00;10.90;99.90
10312;DHT22;5201;48.776;9.128;2022-12-22T00:02:44;10.90;99.90
10312;DHT22;5201;48.776;9.128;2022-12-22T00:05:28;10.90;99.90
10312;DHT22;5201;48.776;9.128;2022-12-22T00:08:12;10.90;99.90
10312;DHT22;5201;48.776;9.128;2022-12-22T00:10:57;11.10;99.90
10312;DHT22;5201;48.776;9.128;2022-12-22T00:13:44;10.80;99.90
10312;DHT22;5201;48.776;9.128;2022-12-22T00:16:32;11.80;99.90
10312;DHT22;5201;48.776;9.128;2022-12-22T00:19:17;10.70;99.90
10312;DHT22;5201;48.776;9.128;2022-12-22T00:22:11;10.80;99.90
10312;DHT22;5201;48.776;9.128;2022-12-22T00:24:55;10.70;99.90
10312;DHT22;5201;48.776;9.128;2022-12-22T00:27:39;10.70;99.90
10312;DHT22;5201;48.776;9.128;2022-12-22T00:30:24;10.70;99.90
10312;DHT22;5201;48.776;9.128;2022-12-22T00:33:10;10.70;99.90
10312;DHT22;5201;48.776;9.128;2022-12-22T00:35:55;10.80;99.90
10312;DHT22;5201;48.776;9.128;2022-12-22T00:38:39;10.70;99.90
10312;DHT22;5201;48.776;9.128;2022-12-22T00:41:23;10.80;99.90
10312;DHT22;5201;48.776;9.128;2022-12-22T00:44:08;10.70;99.90
10312;DHT22;5201;48.776;9.128;2022-12-22T00:46:52;10.80;99.90
10312;DHT22;5201;48.776;9.128;2022-12-22T00:49:36;10.90;99.90
10312;DHT22;5201;48.776;9.128;2022-12-22T00:52:22;10.90;99.90
10312;DHT22;5201;48.776;9.128;2022-12-22T00:55:15;11.00;99.90
10312;DHT22;5201;48.776;9.128;2022-12-22T00:58:01;10.90;99.90
10312;DHT22;5201;48.776;9.128;2022-12-22T01:00:47;10.80;99.90
10312;DHT22;5201;48.776;9.128;2022-12-22T01:03:31;10.80;99.90
10312;DHT22;5201;48.776;9.128;2022-12-22T01:06:15;10.60;99.90
10312;DHT22;5201;48.776;9.128;2022-12-22T01:09:00;10.50;99.90
10312;DHT22;5201;48.776;9.128;2022-12-22T01:11:44;10.60;99.90
10312;DHT22;5201;48.776;9.128;2022-12-22T01:14:28;10.50;99.90
10312;DHT22;5201;48.776;9.128;2022-12-22T01:17:12;10.50;99.90
10312;DHT22;5201;48.776;9.128;2022-12-22T01:19:56;10.40;99.90
10312;DHT22;5201;48.776;9.128;2022-12-22T01:22:40;10.40;99.90
10312;DHT22;5201;48.776;9.128;2022-12-22T01:25:25;10.50;99.90
10312;DHT22;5201;48.776;9.128;2022-12-22T01:28:16;10.50;99.90
10312;DHT22;5201;48.776;9.128;2022-12-22T01:31:29;10.50;99.90
10312;DHT22;5201;48.776;9.128;2022-12-22T01:34:13;10.60;99.90
10312;DHT22;5201;48.776;9.128;2022-12-22T01:36:58;10.50;99.90
10312;DHT22;5201;48.776;9.128;2022-12-22T01:39:42;10.50;99.90
10312;DHT22;5201;48.776;9.128;2022-12-22T01:42:26;10.50;99.90
10312;DHT22;5201;48.776;9.128;2022-12-22T01:45:23;10.60;99.90
10312;DHT22;5201;48.776;9.128;2022-12-22T01:48:15;10.50;99.90
10312;DHT22;5201;48.776;9.128;2022-12-22T01:51:03;10.50;99.90
10312;DHT22;5201;48.776;9.128;2022-12-22T01:53:48;11.20;99.90
10312;DHT22;5201;48.776;9.128;2022-12-22T01:56:32;10.50;99.90
10312;DHT22;5201;48.776;9.128;2022-12-22T01:59:17;10.40;99.90
10312;DHT22;5201;48.776;9.128;2022-12-22T02:02:05;10.30;99.90
10312;DHT22;5201;48.776;9.128;2022-12-22T02:04:50;10.20;99.90
10312;DHT22;5201;48.776;9.128;2022-12-22T02:10:51;10.20;99.90
10312;DHT22;5201;48.776;9.128;2022-12-22T02:17:20;10.20;99.90
10312;DHT22;5201;48.776;9.128;2022-12-22T02:20:33;10.10;99.90
10312;DHT22;5201;48.776;9.128;2022-12-22T02:23:44;10.10;99.90
10312;DHT22;5201;48.776;9.128;2022-12-22T02:26:34;10.20;99.90
10312;DHT22;5201;48.776;9.128;2022-12-22T02:29:35;10.30;99.90
10312;DHT22;5201;48.776;9.128;2022-12-22T02:32:23;10.40;99.90
10312;DHT22;5201;48.776;9.128;2022-12-22T02:35:12;10.40;99.90
10312;DHT22;5201;48.776;9.128;2022-12-22T02:41:42;10.50;99.90
10312;DHT22;5201;48.776;9.128;2022-12-22T02:45:08;10.40;99.90
10312;DHT22;5201;48.776;9.128;2022-12-22T02:48:23;10.50;99.90
10312;DHT22;5201;48.776;9.128;2022-12-22T02:51:08;11.00;99.90
10312;DHT22;5201;48.776;9.128;2022-12-22T02:53:56;10.50;99.90
10312;DHT22;5201;48.776;9.128;2022-12-22T02:56:41;10.50;99.90
10312;DHT22;5201;48.776;9.128;2022-12-22T02:59:25;10.90;99.90
10312;DHT22;5201;48.776;9.128;2022-12-22T03:02:10;10.70;99.90
10312;DHT22;5201;48.776;9.128;2022-12-22T03:04:54;10.70;99.90
10312;DHT22;5201;48.776;9.128;2022-12-22T03:07:38;11.00;99.90
10312;DHT22;5201;48.776;9.128;2022-12-22T03:10:22;10.80;99.90
10312;DHT22;5201;48.776;9.128;2022-12-22T03:13:06;10.90;99.90
10312;DHT22;5201;48.776;9.128;2022-12-22T03:15:51;10.90;99.90
10312;DHT22;5201;48.776;9.128;2022-12-22T03:18:35;10.90;99.90
10312;DHT22;5201;48.776;9.128;2022-12-22T03:21:19;10.80;99.90
10312;DHT22;5201;48.776;9.128;2022-12-22T03:24:03;10.80;99.90
10312;DHT22;5201;48.776;9.128;2022-12-22T03:26:47;10.70;99.90
10312;DHT22;5201;48.776;9.128;2022-12-22T03:29:13;10.70;99.90
10312;DHT22;5201;48.776;9.128;2022-12-22T03:31:38;10.80;99.90
10312;DHT22;5201;48.776;9.128;2022-12-22T03:34:04;10.70;99.90
10312;DHT22;5201;48.776;9.128;2022-12-22T03:36:30;10.90;99.90
10312;DHT22;5201;48.776;9.128;2022-12-22T03:38:55;11.00;99.90
10312;DHT22;5201;48.776;9.128;2022-12-22T03:41:21;10.70;99.90
10312;DHT22;5201;48.776;9.128;2022-12-22T03:44:05;10.70;99.90
10312;DHT22;5201;48.776;9.128;2022-12-22T03:46:49;11.00;99.90
10312;DHT22;5201;48.776;9.128;2022-12-22T03:49:15;10.80;99.90
10312;DHT22;5201;48.776;9.128;2022-12-22T03:51:44;10.90;99.90
10312;DHT22;5201;48.776;9.128;2022-12-22T03:54:11;11.00;99.90
10312;DHT22;5201;48.776;9.128;2022-12-22T03:56:38;11.50;99.90
10312;DHT22;5201;48.776;9.128;2022-12-22T03:59:04;11.00;99.90
10312;DHT22;5201;48.776;9.128;2022-12-22T04:01:31;11.00;99.90
10312;DHT22;5201;48.776;9.128;2022-12-22T04:03:56;11.00;99.90
10312;DHT22;5201;48.776;9.128;2022-12-22T04:06:22;10.90;99.90
10312;DHT22;5201;48.776;9.128;2022-12-22T04:08:48;11.50;99.90
10312;DHT22;5201;48.776;9.128;2022-12-22T04:11:15;10.80;99.90
10312;DHT22;5201;48.776;9.128;2022-12-22T04:14:00;11.00;99.90
10312;DHT22;5201;48.776;9.128;2022-12-22T04:16:25;11.50;99.90
10312;DHT22;5201;48.776;9.128;2022-12-22T04:18:51;11.00;99.90
10312;DHT22;5201;48.776;9.128;2022-12-22T04:21:17;11.30;99.90
10312;DHT22;5201;48.776;9.128;2022-12-22T04:23:42;11.20;99.90
10312;DHT22;5201;48.776;9.128;2022-12-22T04:26:08;11.20;99.90
10312;DHT22;5201;48.776;9.128;2022-12-22T04:28:34;11.40;99.90
10312;DHT22;5201;48.776;9.128;2022-12-22T04:31:00;11.30;99.90
10312;DHT22;5201;48.776;9.128;2022-12-22T04:33:25;11.30;99.90
10312;DHT22;5201;48.776;9.128;2022-12-22T04:35:51;11.30;99.90
10312;DHT22;5201;48.776;9.128;2022-12-22T04:38:16;11.30;99.90
10312;DHT22;5201;48.776;9.128;2022-12-22T04:40:42;12.40;99.90
10312;DHT22;5201;48.776;9.128;2022-12-22T04:43:08;11.10;99.90
10312;DHT22;5201;48.776;9.128;2022-12-22T04:45:33;11.90;99.90
10312;DHT22;5201;48.776;9.128;2022-12-22T04:47:59;11.00;99.90
10312;DHT22;5201;48.776;9.128;2022-12-22T04:50:24;11.10;99.90
10312;DHT22;5201;48.776;9.128;2022-12-22T04:52:50;11.00;99.90
10312;DHT22;5201;48.776;9.128;2022-12-22T04:55:16;10.90;99.90
10312;DHT22;5201;48.776;9.128;2022-12-22T04:57:41;10.70;99.90
10312;DHT22;5201;48.776;9.128;2022-12-22T05:00:08;11.50;99.90
10312;DHT22;5201;48.776;9.128;2022-12-22T05:02:34;10.80;99.90
10312;DHT22;5201;48.776;9.128;2022-12-22T05:04:59;10.80;99.90
10312;DHT22;5201;48.776;9.128;2022-12-22T05:07:25;10.80;99.90
10312;DHT22;5201;48.776;9.128;2022-12-22T05:09:50;11.00;99.90
10312;DHT22;5201;48.776;9.128;2022-12-22T05:12:16;11.50;99.90
10312;DHT22;5201;48.776;9.128;2022-12-22T05:15:00;11.20;99.90
10312;DHT22;5201;48.776;9.128;2022-12-22T05:17:26;10.60;99.90
10312;DHT22;5201;48.776;9.128;2022-12-22T05:19:51;11.00;99.90
10312;DHT22;5201;48.776;9.128;2022-12-22T05:22:17;10.60;99.90
10312;DHT22;5201;48.776;9.128;2022-12-22T05:24:43;11.50;99.90
10312;DHT22;5201;48.776;9.128;2022-12-22T05:27:10;11.10;99.90
10312;DHT22;5201;48.776;9.128;2022-12-22T05:29:35;12.10;99.90
10312;DHT22;5201;48.776;9.128;2022-12-22T05:32:01;8.70;99.90
10312;DHT22;5201;48.776;9.128;2022-12-22T05:34:26;11.00;99.90
10312;DHT22;5201;48.776;9.128;2022-12-22T05:36:52;10.80;99.90
10312;DHT22;5201;48.776;9.128;2022-12-22T05:39:18;11.80;99.90
10312;DHT22;5201;48.776;9.128;2022-12-22T05:41:44;10.80;99.90
10312;DHT22;5201;48.776;9.128;2022-12-22T05:44:09;10.90;99.90
10312;DHT22;5201;48.776;9.128;2022-12-22T05:46:35;10.80;99.90
10312;DHT22;5201;48.776;9.128;2022-12-22T05:49:00;12.90;99.90
10312;DHT22;5201;48.776;9.128;2022-12-22T05:51:26;10.70;99.90
10312;DHT22;5201;48.776;9.128;2022-12-22T05:53:51;10.80;99.90
10312;DHT22;5201;48.776;9.128;2022-12-22T05:56:17;10.90;99.90
10312;DHT22;5201;48.776;9.128;2022-12-22T05:58:43;10.80;99.90
10312;DHT22;5201;48.776;9.128;2022-12-22T06:01:08;10.80;99.90
10312;DHT22;5201;48.776;9.128;2022-12-22T06:03:34;10.80;99.90
10312;DHT22;5201;48.776;9.128;2022-12-22T06:05:59;10.70;99.90
10312;DHT22;5201;48.776;9.128;2022-12-22T06:08:25;10.60;99.90
10312;DHT22;5201;48.776;9.128;2022-12-22T06:10:54;11.40;99.90
10312;DHT22;5201;48.776;9.128;2022-12-22T06:13:20;10.50;99.90
10312;DHT22;5201;48.776;9.128;2022-12-22T06:15:47;10.50;99.90
10312;DHT22;5201;48.776;9.128;2022-12-22T06:18:12;10.40;99.90
10312;DHT22;5201;48.776;9.128;2022-12-22T06:20:38;10.40;99.90
10312;DHT22;5201;48.776;9.128;2022-12-22T06:23:03;10.40;99.90
10312;DHT22;5201;48.776;9.128;2022-12-22T06:25:29;10.40;99.90
10312;DHT22;5201;48.776;9.128;2022-12-22T06:27:55;10.40;99.90
10312;DHT22;5201;48.776;9.128;2022-12-22T06:30:20;10.40;99.90
10312;DHT22;5201;48.776;9.128;2022-12-22T06:32:46;10.40;99.90
10312;DHT22;5201;48.776;9.128;2022-12-22T06:35:11;10.40;99.90
10312;DHT22;5201;48.776;9.128;2022-12-22T06:37:37;10.50;99.90
10312;DHT22;5201;48.776;9.128;2022-12-22T06:40:03;10.50;99.90
10312;DHT22;5201;48.776;9.128;2022-12-22T06:42:29;10.50;99.90
10312;DHT22;5201;48.776;9.128;2022-12-22T06:45:13;10.50;99.90
10312;DHT22;5201;48.776;9.128;2022-12-22T06:47:39;10.60;99.90
10312;DHT22;5201;48.776;9.128;2022-12-22T06:50:05;10.60;99.90
10312;DHT22;5201;48.776;9.128;2022-12-22T06:52:31;10.70;99.90
10312;DHT22;5201;48.776;9.128;2022-12-22T06:54:56;10.80;99.90
10312;DHT22;5201;48.776;9.128;2022-12-22T06:57:22;10.80;99.90
10312;DHT22;5201;48.776;9.128;2022-12-22T06:59:47;10.90;99.90
10312;DHT22;5201;48.776;9.128;2022-12-22T07:02:13;10.70;99.90
10312;DHT22;5201;48.776;9.128;2022-12-22T07:04:38;10.70;99.90
10312;DHT22;5201;48.776;9.128;2022-12-22T07:07:04;10.70;99.90
10312;DHT22;5201;48.776;9.128;2022-12-22T07:09:30;10.60;99.90
10312;DHT22;5201;48.776;9.128;2022-12-22T07:11:56;10.60;99.90
10312;DHT22;5201;48.776;9.128;2022-12-22T07:14:21;10.70;99.90
10312;DHT22;5201;48.776;9.128;2022-12-22T07:16:47;11.50;99.90
10312;DHT22;5201;48.776;9.128;2022-12-22T07:19:12;10.80;99.90
10312;DHT22;5201;48.776;9.128;2022-12-22T07:21:38;10.80;99.90
10312;DHT22;5201;48.776;9.128;2022-12-22T07:24:04;10.80;99.90
10312;DHT22;5201;48.776;9.128;2022-12-22T07:26:30;10.80;99.90
10312;DHT22;5201;48.776;9.128;2022-12-22T07:28:55;10.80;99.90
10312;DHT22;5201;48.776;9.128;2022-12-22T07:31:22;10.80;99.90
10312;DHT22;5201;48.776;9.128;2022-12-22T07:33:48;10.80;99.90
10312;DHT22;5201;48.776;9.128;2022-12-22T07:36:16;11.40;99.90
10312;DHT22;5201;48.776;9.128;2022-12-22T07:38:44;10.80;99.90
10312;DHT22;5201;48.776;9.128;2022-12-22T07:41:12;10.80;99.90
10312;DHT22;5201;48.776;9.128;2022-12-22T07:43:58;10.90;99.90
10312;DHT22;5201;48.776;9.128;2022-12-22T07:46:25;11.00;99.90
10312;DHT22;5201;48.776;9.128;2022-12-22T07:48:51;11.50;99.90
10312;DHT22;5201;48.776;9.128;2022-12-22T07:51:37;10.90;99.90
10312;DHT22;5201;48.776;9.128;2022-12-22T07:54:07;11.00;99.90
10312;DHT22;5201;48.776;9.128;2022-12-22T07:56:33;10.90;99.90
10312;DHT22;5201;48.776;9.128;2022-12-22T07:58:58;10.80;99.90
10312;DHT22;5201;48.776;9.128;2022-12-22T08:01:25;10.70;99.90
10312;DHT22;5201;48.776;9.128;2022-12-22T08:03:50;10.60;99.90
10312;DHT22;5201;48.776;9.128;2022-12-22T08:06:16;10.50;99.90
10312;DHT22;5201;48.776;9.128;2022-12-22T08:08:42;10.50;99.90
10312;DHT22;5201;48.776;9.128;2022-12-22T08:11:07;10.50;99.90
10312;DHT22;5201;48.776;9.128;2022-12-22T08:13:33;10.60;99.90
10312;DHT22;5201;48.776;9.128;2022-12-22T08:16:04;10.50;99.90
10312;DHT22;5201;48.776;9.128;2022-12-22T08:18:30;10.50;99.90
10312;DHT22;5201;48.776;9.128;2022-12-22T08:20:56;10.50;99.90
10312;DHT22;5201;48.776;9.128;2022-12-22T08:23:21;10.50;99.90
10312;DHT22;5201;48.776;9.128;2022-12-22T08:26:12;10.50;99.90
10312;DHT22;5201;48.776;9.128;2022-12-22T08:29:21;10.50;99.90
10312;DHT22;5201;48.776;9.128;2022-12-22T08:31:28;10.50;99.90
10312;DHT22;5201;48.776;9.128;2022-12-22T08:33:56;10.50;99.90
10312;DHT22;5201;48.776;9.128;2022-12-22T08:36:22;10.40;99.90
10312;DHT22;5201;48.776;9.128;2022-12-22T08:38:48;10.50;99.90
10312;DHT22;5201;48.776;9.128;2022-12-22T08:41:15;10.60;99.90
10312;DHT22;5201;48.776;9.128;2022-12-22T08:44:01;10.60;99.90
10312;DHT22;5201;48.776;9.128;2022-12-22T08:46:26;11.10;99.90
10312;DHT22;5201;48.776;9.128;2022-12-22T08:48:52;10.60;99.90
10312;DHT22;5201;48.776;9.128;2022-12-22T08:51:17;10.80;99.90
10312;DHT22;5201;48.776;9.128;2022-12-22T08:53:43;10.90;99.90
10312;DHT22;5201;48.776;9.128;2022-12-22T08:56:08;11.50;99.90
10312;DHT22;5201;48.776;9.128;2022-12-22T08:58:34;10.90;99.90
10312;DHT22;5201;48.776;9.128;2022-12-22T09:00:59;11.00;99.90
10312;DHT22;5201;48.776;9.128;2022-12-22T09:03:25;11.00;99.90
10312;DHT22;5201;48.776;9.128;2022-12-22T09:05:50;11.00;99.90
10312;DHT22;5201;48.776;9.128;2022-12-22T09:08:16;11.10;99.90
10312;DHT22;5201;48.776;9.128;2022-12-22T09:10:42;11.20;99.90
10312;DHT22;5201;48.776;9.128;2022-12-22T09:13:08;11.30;99.90
10312;DHT22;5201;48.776;9.128;2022-12-22T09:15:33;11.40;99.90
10312;DHT22;5201;48.776;9.128;2022-12-22T09:18:00;11.50;99.90
10312;DHT22;5201;48.776;9.128;2022-12-22T09:20:26;11.40;99.90
10312;DHT22;5201;48.776;9.128;2022-12-22T09:22:51;11.50;99.90
10312;DHT22;5201;48.776;9.128;2022-12-22T09:25:17;11.40;99.90
10312;DHT22;5201;48.776;9.128;2022-12-22T09:27:43;11.40;99.90
10312;DHT22;5201;48.776;9.128;2022-12-22T09:30:08;11.40;99.90
10312;DHT22;5201;48.776;9.128;2022-12-22T09:32:34;11.30;99.90
10312;DHT22;5201;48.776;9.128;2022-12-22T09:35:00;12.00;99.90
10312;DHT22;5201;48.776;9.128;2022-12-22T09:37:25;11.20;99.90
10312;DHT22;5201;48.776;9.128;2022-12-22T09:39:51;11.10;99.90
10312;DHT22;5201;48.776;9.128;2022-12-22T09:42:20;11.10;99.90
10312;DHT22;5201;48.776;9.128;2022-12-22T09:44:49;11.00;99.90
10312;DHT22;5201;48.776;9.128;2022-12-22T09:47:31;10.80;99.90
10312;DHT22;5201;48.776;9.128;2022-12-22T09:50:00;10.80;99.90
10312;DHT22;5201;48.776;9.128;2022-12-22T09:54:58;10.50;99.90
10312;DHT22;5201;48.776;9.128;2022-12-22T09:57:29;10.70;99.90
10312;DHT22;5201;48.776;9.128;2022-12-22T09:59:57;10.60;99.90
10312;DHT22;5201;48.776;9.128;2022-12-22T10:05:48;10.60;99.90
10312;DHT22;5201;48.776;9.128;2022-12-22T10:08:19;10.70;99.90
10312;DHT22;5201;48.776;9.128;2022-12-22T10:10:52;11.20;99.90
10312;DHT22;5201;48.776;9.128;2022-12-22T10:13:18;11.00;99.90
10312;DHT22;5201;48.776;9.128;2022-12-22T10:15:44;11.10;99.90
10312;DHT22;5201;48.776;9.128;2022-12-22T10:18:13;11.00;99.90
10312;DHT22;5201;48.776;9.128;2022-12-22T10:20:40;11.00;99.90
10312;DHT22;5201;48.776;9.128;2022-12-22T10:23:19;11.00;99.90
10312;DHT22;5201;48.776;9.128;2022-12-22T10:28:56;11.20;99.90
10312;DHT22;5201;48.776;9.128;2022-12-22T10:31:25;11.30;99.90
10312;DHT22;5201;48.776;9.128;2022-12-22T10:33:53;11.30;99.90
10312;DHT22;5201;48.776;9.128;2022-12-22T10:36:30;11.30;99.90
10312;DHT22;5201;48.776;9.128;2022-12-22T10:39:03;11.20;99.90
10312;DHT22;5201;48.776;9.128;2022-12-22T10:41:35;11.20;99.90
10312;DHT22;5201;48.776;9.128;2022-12-22T10:44:19;11.10;99.90
10312;DHT22;5201;48.776;9.128;2022-12-22T10:49:28;11.10;99.90
10312;DHT22;5201;48.776;9.128;2022-12-22T10:52:10;11.20;99.90
10312;DHT22;5201;48.776;9.128;2022-12-22T10:54:37;11.10;99.90
10312;DHT22;5201;48.776;9.128;2022-12-22T10:59:59;11.10;99.90
10312;DHT22;5201;48.776;9.128;2022-12-22T11:02:29;10.90;99.90
10312;DHT22;5201;48.776;9.128;2022-12-22T11:05:10;10.90;99.90
10312;DHT22;5201;48.776;9.128;2022-12-22T11:07:41;11.00;99.90
10312;DHT22;5201;48.776;9.128;2022-12-22T11:15:31;11.30;99.90
10312;DHT22;5201;48.776;9.128;2022-12-22T11:26:54;11.80;99.90
10312;DHT22;5201;48.776;9.128;2022-12-22T11:29:58;11.90;99.90
10312;DHT22;5201;48.776;9.128;2022-12-22T11:32:45;11.90;99.90
10312;DHT22;5201;48.776;9.128;2022-12-22T11:38:03;11.90;99.90
10312;DHT22;5201;48.776;9.128;2022-12-22T11:48:54;11.80;99.90
10312;DHT22;5201;48.776;9.128;2022-12-22T11:54:27;11.70;99.90
10312;DHT22;5201;48.776;9.128;2022-12-22T11:57:04;11.90;99.90
10312;DHT22;5201;48.776;9.128;2022-12-22T12:11:08;12.00;99.90
10312;DHT22;5201;48.776;9.128;2022-12-22T12:16:58;12.10;99.90
10312;DHT22;5201;48.776;9.128;2022-12-22T12:19:39;12.20;99.90
10312;DHT22;5201;48.776;9.128;2022-12-22T12:25:01;12.30;99.90
10312;DHT22;5201;48.776;9.128;2022-12-22T12:28:05;12.60;99.90
10312;DHT22;5201;48.776;9.128;2022-12-22T12:30:55;12.40;99.90
10312;DHT22;5201;48.776;9.128;2022-12-22T12:33:45;12.40;99.90
10312;DHT22;5201;48.776;9.128;2022-12-22T12:42:24;12.10;99.90
10312;DHT22;5201;48.776;9.128;2022-12-22T12:44:52;12.10;99.90
10312;DHT22;5201;48.776;9.128;2022-12-22T12:47:26;12.10;99.90
10312;DHT22;5201;48.776;9.128;2022-12-22T12:57:57;12.20;99.90
10312;DHT22;5201;48.776;9.128;2022-12-22T13:03:11;11.90;99.90
10312;DHT22;5201;48.776;9.128;2022-12-22T13:05:59;12.00;99.90
10312;DHT22;5201;48.776;9.128;2022-12-22T13:11:32;11.90;99.90
10312;DHT22;5201;48.776;9.128;2022-12-22T13:13:58;11.90;99.90
10312;DHT22;5201;48.776;9.128;2022-12-22T13:16:26;11.80;99.90
10312;DHT22;5201;48.776;9.128;2022-12-22T13:18:53;12.30;99.90
10312;DHT22;5201;48.776;9.128;2022-12-22T13:21:43;12.20;99.90
10312;DHT22;5201;48.776;9.128;2022-12-22T13:24:14;12.40;99.90
10312;DHT22;5201;48.776;9.128;2022-12-22T13:26:42;12.10;99.90
10312;DHT22;5201;48.776;9.128;2022-12-22T13:29:28;12.20;99.90
10312;DHT22;5201;48.776;9.128;2022-12-22T13:32:47;12.10;99.90
10312;DHT22;5201;48.776;9.128;2022-12-22T13:37:24;12.30;99.90
10312;DHT22;5201;48.776;9.128;2022-12-22T13:43:04;12.20;99.90
10312;DHT22;5201;48.776;9.128;2022-12-22T13:45:44;12.20;99.90
10312;DHT22;5201;48.776;9.128;2022-12-22T13:48:20;12.30;99.90
10312;DHT22;5201;48.776;9.128;2022-12-22T13:50:55;12.30;99.90
10312;DHT22;5201;48.776;9.128;2022-12-22T13:53:31;12.30;99.90
10312;DHT22;5201;48.776;9.128;2022-12-22T13:55:58;12.30;99.90
10312;DHT22;5201;48.776;9.128;2022-12-22T13:58:27;12.30;99.90
10312;DHT22;5201;48.776;9.128;2022-12-22T14:01:18;12.60;99.90
10312;DHT22;5201;48.776;9.128;2022-12-22T14:06:39;12.30;99.90
10312;DHT22;5201;48.776;9.128;2022-12-22T14:09:16;12.40;99.90
10312;DHT22;5201;48.776;9.128;2022-12-22T14:11:47;12.40;99.90
10312;DHT22;5201;48.776;9.128;2022-12-22T14:14:17;12.30;99.90
10312;DHT22;5201;48.776;9.128;2022-12-22T14:16:49;12.30;99.90
10312;DHT22;5201;48.776;9.128;2022-12-22T14:19:16;12.30;99.90
10312;DHT22;5201;48.776;9.128;2022-12-22T14:21:45;12.40;99.90
10312;DHT22;5201;48.776;9.128;2022-12-22T14:24:24;12.10;99.90
10312;DHT22;5201;48.776;9.128;2022-12-22T14:26:52;12.10;99.90
10312;DHT22;5201;48.776;9.128;2022-12-22T14:29:22;12.00;99.90
10312;DHT22;5201;48.776;9.128;2022-12-22T14:32:00;12.30;99.90
10312;DHT22;5201;48.776;9.128;2022-12-22T14:34:33;12.00;99.90
10312;DHT22;5201;48.776;9.128;2022-12-22T14:37:00;12.30;99.90
10312;DHT22;5201;48.776;9.128;2022-12-22T14:39:29;12.40;99.90
10312;DHT22;5201;48.776;9.128;2022-12-22T14:42:03;12.00;99.90
10312;DHT22;5201;48.776;9.128;2022-12-22T14:44:44;11.90;99.90
10312;DHT22;5201;48.776;9.128;2022-12-22T14:50:13;11.80;99.90
10312;DHT22;5201;48.776;9.128;2022-12-22T14:53:06;11.80;99.90
10312;DHT22;5201;48.776;9.128;2022-12-22T14:55:37;11.90;99.90
10312;DHT22;5201;48.776;9.128;2022-12-22T14:58:30;12.30;99.90
10312;DHT22;5201;48.776;9.128;2022-12-22T15:03:37;11.80;99.90
10312;DHT22;5201;48.776;9.128;2022-12-22T15:08:50;11.70;99.90
10312;DHT22;5201;48.776;9.128;2022-12-22T15:11:19;12.00;99.90
10312;DHT22;5201;48.776;9.128;2022-12-22T15:13:46;11.70;99.90
10312;DHT22;5201;48.776;9.128;2022-12-22T15:16:18;11.60;99.90
10312;DHT22;5201;48.776;9.128;2022-12-22T15:18:44;11.50;99.90
10312;DHT22;5201;48.776;9.128;2022-12-22T15:21:15;12.00;99.90
10312;DHT22;5201;48.776;9.128;2022-12-22T15:23:42;11.40;99.90
10312;DHT22;5201;48.776;9.128;2022-12-22T15:26:07;11.50;99.90
10312;DHT22;5201;48.776;9.128;2022-12-22T15:28:33;11.40;99.90
10312;DHT22;5201;48.776;9.128;2022-12-22T15:30:59;11.60;99.90
10312;DHT22;5201;48.776;9.128;2022-12-22T15:33:25;11.30;99.90
10312;DHT22;5201;48.776;9.128;2022-12-22T15:35:51;11.30;99.90
10312;DHT22;5201;48.776;9.128;2022-12-22T15:38:19;11.40;99.90
10312;DHT22;5201;48.776;9.128;2022-12-22T15:40:45;11.40;99.90
10312;DHT22;5201;48.776;9.128;2022-12-22T15:43:12;11.60;99.90
10312;DHT22;5201;48.776;9.128;2022-12-22T15:45:39;11.40;99.90
10312;DHT22;5201;48.776;9.128;2022-12-22T15:48:08;11.30;99.90
10312;DHT22;5201;48.776;9.128;2022-12-22T15:50:39;11.30;99.90
10312;DHT22;5201;48.776;9.128;2022-12-22T15:53:06;11.30;99.90
10312;DHT22;5201;48.776;9.128;2022-12-22T15:55:37;11.30;99.90
10312;DHT22;5201;48.776;9.128;2022-12-22T15:58:07;11.20;99.90
10312;DHT22;5201;48.776;9.128;2022-12-22T16:00:35;11.20;99.90
10312;DHT22;5201;48.776;9.128;2022-12-22T16:03:02;11.80;99.90
10312;DHT22;5201;48.776;9.128;2022-12-22T16:05:27;11.40;99.90
10312;DHT22;5201;48.776;9.128;2022-12-22T16:07:53;11.10;99.90
10312;DHT22;5201;48.776;9.128;2022-12-22T16:10:28;11.00;99.90
10312;DHT22;5201;48.776;9.128;2022-12-22T16:12:55;11.00;99.90
10312;DHT22;5201;48.776;9.128;2022-12-22T16:15:32;11.00;99.90
10312;DHT22;5201;48.776;9.128;2022-12-22T16:18:00;10.90;99.90
10312;DHT22;5201;48.776;9.128;2022-12-22T16:20:28;10.90;99.90
10312;DHT22;5201;48.776;9.128;2022-12-22T16:22:55;10.90;99.90
10312;DHT22;5201;48.776;9.128;2022-12-22T16:25:25;10.90;99.90
10312;DHT22;5201;48.776;9.128;2022-12-22T16:27:52;10.90;99.90
10312;DHT22;5201;48.776;9.128;2022-12-22T16:30:22;10.90;99.90
10312;DHT22;5201;48.776;9.128;2022-12-22T16:32:47;10.80;99.90
10312;DHT22;5201;48.776;9.128;2022-12-22T16:35:19;10.80;99.90
10312;DHT22;5201;48.776;9.128;2022-12-22T16:37:45;10.80;99.90
10312;DHT22;5201;48.776;9.128;2022-12-22T16:40:13;10.80;99.90
10312;DHT22;5201;48.776;9.128;2022-12-22T16:42:42;10.80;99.90
10312;DHT22;5201;48.776;9.128;2022-12-22T16:45:17;10.70;99.90
10312;DHT22;5201;48.776;9.128;2022-12-22T16:47:43;10.60;99.90
10312;DHT22;5201;48.776;9.128;2022-12-22T16:50:21;10.70;99.90
10312;DHT22;5201;48.776;9.128;2022-12-22T16:52:48;10.60;99.90
10312;DHT22;5201;48.776;9.128;2022-12-22T16:55:15;10.70;99.90
10312;DHT22;5201;48.776;9.128;2022-12-22T16:57:41;10.70;99.90
10312;DHT22;5201;48.776;9.128;2022-12-22T17:00:09;10.70;99.90
10312;DHT22;5201;48.776;9.128;2022-12-22T17:02:37;10.60;99.90
10312;DHT22;5201;48.776;9.128;2022-12-22T17:05:03;10.70;99.90
10312;DHT22;5201;48.776;9.128;2022-12-22T17:07:31;10.70;99.90
10312;DHT22;5201;48.776;9.128;2022-12-22T17:09:59;10.80;99.90
10312;DHT22;5201;48.776;9.128;2022-12-22T17:12:32;10.70;99.90
10312;DHT22;5201;48.776;9.128;2022-12-22T17:14:59;10.70;99.90
10312;DHT22;5201;48.776;9.128;2022-12-22T17:17:26;10.70;99.90
10312;DHT22;5201;48.776;9.128;2022-12-22T17:19:51;10.70;99.90
10312;DHT22;5201;48.776;9.128;2022-12-22T17:22:24;10.70;99.90
10312;DHT22;5201;48.776;9.128;2022-12-22T17:24:52;10.80;99.90
10312;DHT22;5201;48.776;9.128;2022-12-22T17:27:23;10.80;99.90
10312;DHT22;5201;48.776;9.128;2022-12-22T17:29:50;10.80;99.90
10312;DHT22;5201;48.776;9.128;2022-12-22T17:32:18;10.70;99.90
10312;DHT22;5201;48.776;9.128;2022-12-22T17:34:44;10.70;99.90
10312;DHT22;5201;48.776;9.128;2022-12-22T17:37:15;10.80;99.90
10312;DHT22;5201;48.776;9.128;2022-12-22T17:39:43;10.80;99.90
10312;DHT22;5201;48.776;9.128;2022-12-22T17:42:20;10.80;99.90
10312;DHT22;5201;48.776;9.128;2022-12-22T17:44:47;10.80;99.90
10312;DHT22;5201;48.776;9.128;2022-12-22T17:47:15;10.90;99.90
10312;DHT22;5201;48.776;9.128;2022-12-22T17:49:41;10.90;99.90
10312;DHT22;5201;48.776;9.128;2022-12-22T17:52:33;10.90;99.90
10312;DHT22;5201;48.776;9.128;2022-12-22T17:54:59;10.90;99.90
10312;DHT22;5201;48.776;9.128;2022-12-22T17:57:29;10.90;99.90
10312;DHT22;5201;48.776;9.128;2022-12-22T17:59:55;10.90;99.90
10312;DHT22;5201;48.776;9.128;2022-12-22T18:02:22;10.90;99.90
10312;DHT22;5201;48.776;9.128;2022-12-22T18:04:48;10.90;99.90
10312;DHT22;5201;48.776;9.128;2022-12-22T18:07:23;10.80;99.90